createdAt,value
2023-03-01T00:04:38.254Z,11.27
2023-03-01T00:09:41.177Z,11.35
2023-03-01T00:14:42.839Z,10.40
2023-03-01T00:19:44.246Z,10.13
2023-03-01T00:24:45.953Z,10.32
2023-03-01T00:29:47.453Z,9.65
2023-03-01T00:34:55.432Z,11.27
2023-03-01T00:39:56.949Z,10.27
2023-03-01T00:44:59.020Z,10.55
2023-03-01T00:50:00.532Z,11.65
2023-03-01T00:55:02.370Z,9.85
2023-03-01T01:00:06.393Z,10.25
2023-03-01T01:05:08.308Z,10.63
2023-03-01T01:10:13.792Z,10.48
2023-03-01T01:15:17.523Z,10.95
2023-03-01T01:20:20.525Z,10.75
2023-03-01T01:25:22.644Z,11.85
2023-03-01T01:30:24.105Z,11.57
2023-03-01T01:35:25.817Z,10.82
2023-03-01T01:40:27.296Z,10.93
2023-03-01T01:45:35.151Z,12.18
2023-03-01T01:50:39.759Z,11.57
2023-03-01T01:55:45.824Z,11.00
2023-03-01T02:00:48.684Z,11.18
2023-03-01T02:05:58.089Z,12.07
2023-03-01T02:11:00.681Z,11.73
2023-03-01T02:16:09.241Z,11.38
2023-03-01T02:21:35.655Z,11.80
2023-03-01T02:26:50.115Z,11.38
2023-03-01T02:31:54.647Z,10.53
2023-03-01T02:37:00.930Z,12.17
2023-03-01T02:42:04.936Z,12.45
2023-03-01T02:47:06.996Z,11.63
2023-03-01T02:52:41.882Z,13.27
2023-03-01T02:57:46.275Z,11.48
2023-03-01T03:02:50.189Z,10.85
2023-03-01T03:07:52.535Z,11.87
2023-03-01T03:12:57.038Z,12.90
2023-03-01T03:18:00.175Z,11.73
2023-03-01T03:23:02.095Z,12.43
2023-03-01T03:28:10.843Z,12.73
2023-03-01T03:33:13.757Z,13.18
2023-03-01T03:38:17.905Z,13.63
2023-03-01T03:43:23.414Z,12.63
2023-03-01T03:48:25.875Z,14.02
2023-03-01T03:53:30.253Z,13.40
2023-03-01T03:58:31.917Z,12.73
2023-03-01T04:03:34.590Z,12.85
2023-03-01T04:08:36.043Z,12.50
2023-03-01T04:13:37.474Z,12.90
2023-03-01T04:18:39.103Z,14.50
2023-03-01T04:23:41.936Z,14.00
2023-03-01T04:28:47.454Z,13.88
2023-03-01T04:33:55.312Z,13.68
2023-03-01T04:38:57.258Z,13.65
2023-03-01T04:44:01.010Z,14.25
2023-03-01T04:49:03.801Z,14.23
2023-03-01T04:54:06.319Z,13.93
2023-03-01T04:59:09.435Z,14.50
2023-03-01T05:04:14.456Z,13.27
2023-03-01T05:09:16.169Z,13.57
2023-03-01T05:14:17.636Z,13.95
2023-03-01T05:19:23.786Z,13.38
2023-03-01T05:24:25.623Z,14.57
2023-03-01T05:29:29.107Z,14.73
2023-03-01T05:34:36.921Z,13.75
2023-03-01T05:39:38.486Z,13.98
2023-03-01T05:44:39.925Z,13.82
2023-03-01T05:49:41.612Z,13.25
2023-03-01T05:54:43.093Z,13.88
2023-03-01T05:59:44.725Z,14.27
2023-03-01T06:04:46.561Z,13.23
2023-03-01T06:09:48.134Z,13.90
2023-03-01T06:14:49.579Z,13.98
2023-03-01T06:19:51.109Z,14.23
2023-03-01T06:24:52.557Z,13.60
2023-03-01T06:29:54.307Z,13.43
2023-03-01T06:34:55.888Z,13.70
2023-03-01T06:39:59.097Z,14.07
2023-03-01T06:45:00.456Z,13.00
2023-03-01T06:50:03.139Z,13.68
2023-03-01T06:55:05.864Z,14.25
2023-03-01T07:00:08.958Z,14.40
2023-03-01T07:05:11.768Z,14.23
2023-03-01T07:10:14.624Z,14.37
2023-03-01T07:15:16.262Z,15.13
2023-03-01T07:20:19.545Z,14.10
2023-03-01T07:25:21.405Z,14.05
2023-03-01T07:30:23.663Z,14.65
2023-03-01T07:35:27.730Z,14.48
2023-03-01T07:40:29.864Z,14.65
2023-03-01T07:45:31.779Z,14.25
2023-03-01T07:50:33.516Z,14.70
2023-03-01T07:55:34.995Z,14.73
2023-03-01T08:00:36.638Z,16.05
2023-03-01T08:05:38.680Z,18.77
2023-03-01T08:10:40.147Z,14.52
2023-03-01T08:15:41.623Z,14.70
2023-03-01T08:20:43.252Z,14.73
2023-03-01T08:25:44.861Z,15.55
2023-03-01T08:30:46.441Z,14.73
2023-03-01T08:35:47.838Z,14.75
2023-03-01T08:40:51.881Z,14.48
2023-03-01T08:45:57.669Z,13.88
2023-03-01T08:51:08.670Z,14.48
2023-03-01T08:56:10.941Z,13.35
2023-03-01T09:01:14.992Z,13.05
2023-03-01T09:06:18.557Z,13.20
2023-03-01T09:11:22.710Z,14.02
2023-03-01T09:16:25.396Z,14.93
2023-03-01T09:21:39.555Z,13.25
2023-03-01T09:26:42.102Z,15.10
2023-03-01T09:31:44.280Z,16.33
2023-03-01T09:36:45.604Z,13.52
2023-03-01T09:42:04.822Z,15.35
2023-03-01T09:47:13.602Z,14.70
2023-03-01T09:52:35.490Z,13.82
2023-03-01T09:58:23.112Z,15.32
2023-03-01T10:03:36.457Z,15.25
2023-03-01T10:09:12.908Z,12.63
2023-03-01T10:14:33.283Z,13.30
2023-03-01T10:19:39.789Z,13.82
2023-03-01T10:24:41.285Z,13.90
2023-03-01T10:30:21.113Z,13.32
2023-03-01T10:35:27.111Z,13.57
2023-03-01T10:40:28.618Z,13.23
2023-03-01T10:45:35.730Z,12.65
2023-03-01T10:50:42.246Z,13.25
2023-03-01T10:55:44.903Z,12.48
2023-03-01T11:01:06.724Z,11.70
2023-03-01T11:06:13.905Z,12.98
2023-03-01T11:11:32.744Z,12.60
2023-03-01T11:16:39.963Z,11.90
2023-03-01T11:21:49.190Z,12.00
2023-03-01T11:26:56.182Z,10.77
2023-03-01T11:32:02.390Z,11.02
2023-03-01T11:37:13.553Z,9.68
2023-03-01T11:42:29.041Z,9.13
2023-03-01T11:48:08.809Z,9.40
2023-03-01T11:53:37.746Z,8.77
2023-03-01T11:59:09.123Z,8.88
2023-03-01T12:09:52.346Z,9.15
2023-03-01T12:15:01.759Z,8.60
2023-03-01T12:20:18.975Z,7.85
2023-03-01T12:25:35.903Z,8.07
2023-03-01T12:30:49.856Z,7.88
2023-03-01T12:36:12.160Z,7.00
2023-03-01T12:41:25.831Z,6.63
2023-03-01T12:46:54.174Z,7.05
2023-03-01T12:52:10.455Z,6.25
2023-03-01T12:57:57.116Z,7.22
2023-03-01T13:03:37.110Z,6.90
2023-03-01T13:13:56.962Z,6.50
2023-03-01T13:19:16.836Z,7.05
2023-03-01T13:29:51.953Z,7.00
2023-03-01T13:34:59.352Z,7.68
2023-03-01T13:40:06.066Z,7.45
2023-03-01T13:45:43.588Z,15.02
2023-03-01T13:51:02.687Z,7.47
2023-03-01T13:56:13.025Z,7.53
2023-03-01T14:01:31.891Z,7.05
2023-03-01T14:06:36.819Z,8.00
2023-03-01T14:11:57.011Z,7.13
2023-03-01T14:22:30.753Z,7.68
2023-03-01T14:27:43.740Z,7.50
2023-03-01T14:32:56.378Z,7.20
2023-03-01T14:37:58.558Z,7.03
2023-03-01T14:43:02.734Z,6.78
2023-03-01T14:48:07.043Z,7.75
2023-03-01T14:53:18.816Z,7.53
2023-03-01T14:58:25.895Z,7.38
2023-03-01T15:03:43.751Z,7.65
2023-03-01T15:08:52.522Z,8.20
2023-03-01T15:13:55.342Z,8.68
2023-03-01T15:19:07.158Z,8.93
2023-03-01T15:24:12.923Z,8.82
2023-03-01T15:29:24.077Z,8.10
2023-03-01T15:34:33.333Z,8.25
2023-03-01T15:39:40.767Z,8.13
2023-03-01T15:44:44.441Z,8.60
2023-03-01T15:49:54.881Z,9.00
2023-03-01T15:55:00.414Z,8.40
2023-03-01T16:00:02.238Z,8.43
2023-03-01T16:05:04.587Z,8.38
2023-03-01T16:10:07.005Z,9.10
2023-03-01T16:15:26.683Z,8.68
2023-03-01T16:20:32.773Z,8.95
2023-03-01T16:25:36.483Z,8.45
2023-03-01T16:30:40.579Z,8.90
2023-03-01T16:35:45.149Z,9.30
2023-03-01T16:40:49.333Z,9.05
2023-03-01T16:45:50.969Z,9.27
2023-03-01T16:51:02.537Z,9.75
2023-03-01T16:56:06.537Z,9.73
2023-03-01T17:01:11.931Z,9.50
2023-03-01T17:06:16.739Z,9.18
2023-03-01T17:16:21.502Z,9.05
2023-03-01T17:21:23.189Z,9.63
2023-03-01T17:26:24.966Z,9.85
2023-03-01T17:31:26.677Z,11.02
2023-03-01T17:36:28.108Z,10.95
2023-03-01T17:41:29.817Z,10.52
2023-03-01T17:46:31.399Z,10.90
2023-03-01T17:51:33.289Z,10.40
2023-03-01T17:56:38.666Z,12.60
2023-03-01T18:01:42.580Z,11.63
2023-03-01T18:06:44.274Z,10.57
2023-03-01T18:11:47.836Z,9.77
2023-03-01T18:16:49.506Z,10.82
2023-03-01T18:21:51.294Z,10.57
2023-03-01T18:26:52.726Z,10.75
2023-03-01T18:31:54.667Z,10.13
2023-03-01T18:37:08.694Z,10.88
2023-03-01T18:47:13.037Z,17.80
2023-03-01T18:52:14.449Z,11.40
2023-03-01T18:57:15.851Z,11.77
2023-03-01T19:02:17.593Z,10.95
2023-03-01T19:07:19.009Z,10.82
2023-03-01T19:12:21.565Z,10.77
2023-03-01T19:17:30.994Z,10.02
2023-03-01T19:22:32.802Z,11.02
2023-03-01T19:27:35.479Z,11.40
2023-03-01T19:32:36.905Z,11.57
2023-03-01T19:37:38.357Z,10.35
2023-03-01T19:42:39.729Z,10.35
2023-03-01T19:47:41.406Z,10.63
2023-03-01T19:52:42.819Z,10.00
2023-03-01T19:57:44.238Z,10.35
2023-03-01T20:02:46.140Z,11.88
2023-03-01T20:07:48.141Z,11.10
2023-03-01T20:12:49.777Z,13.63
2023-03-01T20:17:51.486Z,11.80
2023-03-01T20:22:53.067Z,12.20
2023-03-01T20:27:54.791Z,11.52
2023-03-01T20:32:56.280Z,12.38
2023-03-01T20:37:58.548Z,11.48
2023-03-01T20:43:00.928Z,11.75
2023-03-01T20:48:02.625Z,11.00
2023-03-01T20:53:04.269Z,11.25
2023-03-01T20:58:05.684Z,11.70
2023-03-01T21:03:07.529Z,11.68
2023-03-01T21:08:10.523Z,11.20
2023-03-01T21:13:12.166Z,11.07
2023-03-01T21:18:14.073Z,11.85
2023-03-01T21:23:15.844Z,11.10
2023-03-01T21:28:17.546Z,10.70
2023-03-01T21:33:18.983Z,12.30
2023-03-01T21:38:20.811Z,12.52
2023-03-01T21:43:23.047Z,12.05
2023-03-01T21:48:24.676Z,11.43
2023-03-01T21:53:28.984Z,11.70
2023-03-01T21:58:31.825Z,11.47
2023-03-01T22:03:33.853Z,10.20
2023-03-01T22:08:35.418Z,12.13
2023-03-01T22:13:37.119Z,10.82
2023-03-01T22:18:38.547Z,11.18
2023-03-01T22:23:40.852Z,10.93
2023-03-01T22:28:44.152Z,11.02
2023-03-01T22:33:47.493Z,11.98
2023-03-01T22:38:49.242Z,10.98
2023-03-01T22:43:50.653Z,11.43
2023-03-01T22:48:52.675Z,11.82
2023-03-01T22:53:54.958Z,10.63
2023-03-01T22:59:01.134Z,10.88
2023-03-01T23:04:02.764Z,10.77
2023-03-01T23:09:06.816Z,10.23
2023-03-01T23:14:08.343Z,12.02
2023-03-01T23:19:10.058Z,11.15
2023-03-01T23:24:11.649Z,11.10
2023-03-01T23:29:13.065Z,11.15
2023-03-01T23:34:14.850Z,11.35
2023-03-01T23:39:16.368Z,10.73
2023-03-01T23:44:20.655Z,10.75
2023-03-01T23:49:23.233Z,10.60
2023-03-01T23:54:25.842Z,11.35
2023-03-01T23:59:27.299Z,10.93
